createdAt,value
2022-11-09T00:00:20.277Z,12.80
2022-11-09T00:03:07.914Z,12.80
2022-11-09T00:05:59.587Z,12.80
2022-11-09T00:08:46.992Z,12.70
2022-11-09T00:11:34.121Z,12.80
2022-11-09T00:14:21.745Z,12.80
2022-11-09T00:17:09.131Z,12.80
2022-11-09T00:19:56.612Z,12.80
2022-11-09T00:22:44.005Z,12.80
2022-11-09T00:25:32.162Z,13.00
2022-11-09T00:28:19.245Z,13.10
2022-11-09T00:31:08.703Z,13.20
2022-11-09T00:33:57.749Z,13.30
2022-11-09T00:36:45.387Z,13.40
2022-11-09T00:39:32.621Z,13.40
2022-11-09T00:42:19.945Z,13.40
2022-11-09T00:45:07.957Z,13.50
2022-11-09T00:47:55.380Z,13.50
2022-11-09T00:50:42.965Z,13.50
2022-11-09T00:53:32.027Z,13.60
2022-11-09T00:56:19.472Z,13.50
2022-11-09T00:59:06.984Z,13.50
2022-11-09T01:01:54.649Z,13.30
2022-11-09T01:04:41.764Z,13.20
2022-11-09T01:07:29.028Z,13.30
2022-11-09T01:10:16.474Z,13.30
2022-11-09T01:13:04.123Z,13.30
2022-11-09T01:15:53.803Z,13.40
2022-11-09T01:18:41.552Z,13.40
2022-11-09T01:21:29.396Z,13.40
2022-11-09T01:24:17.146Z,13.40
2022-11-09T01:27:04.642Z,13.40
2022-11-09T01:29:51.757Z,13.30
2022-11-09T01:32:39.323Z,13.30
2022-11-09T01:35:26.665Z,13.40
2022-11-09T01:38:13.918Z,13.40
2022-11-09T01:41:01.257Z,13.50
2022-11-09T01:44:11.502Z,13.50
2022-11-09T01:47:04.729Z,13.40
2022-11-09T01:49:57.840Z,13.40
2022-11-09T01:52:47.863Z,13.20
2022-11-09T01:55:35.627Z,13.30
2022-11-09T01:58:26.313Z,13.30
2022-11-09T02:01:15.249Z,13.30
2022-11-09T02:04:14.547Z,13.40
2022-11-09T02:07:02.144Z,13.40
2022-11-09T02:10:01.664Z,13.40
2022-11-09T02:12:49.836Z,13.50
2022-11-09T02:15:41.489Z,13.50
2022-11-09T02:18:28.455Z,13.60
2022-11-09T02:21:15.850Z,13.70
2022-11-09T02:24:03.151Z,13.70
2022-11-09T02:26:52.674Z,13.70
2022-11-09T02:29:42.515Z,13.70
2022-11-09T02:32:30.944Z,13.80
2022-11-09T02:35:18.358Z,13.80
2022-11-09T02:38:09.556Z,13.90
2022-11-09T02:40:57.246Z,14.10
2022-11-09T02:43:44.475Z,14.10
2022-11-09T02:46:37.105Z,14.20
2022-11-09T02:49:23.853Z,14.20
2022-11-09T02:52:10.935Z,14.20
2022-11-09T02:54:58.443Z,14.20
2022-11-09T02:57:46.373Z,14.20
2022-11-09T03:00:33.579Z,14.20
2022-11-09T03:03:20.938Z,14.20
2022-11-09T03:06:08.574Z,14.20
2022-11-09T03:08:56.201Z,14.20
2022-11-09T03:11:43.950Z,14.30
2022-11-09T03:14:30.985Z,14.40
2022-11-09T03:17:18.531Z,14.50
2022-11-09T03:20:06.427Z,14.60
2022-11-09T03:22:56.987Z,14.50
2022-11-09T03:25:44.425Z,14.50
2022-11-09T03:28:31.640Z,14.60
2022-11-09T03:31:18.859Z,14.70
2022-11-09T03:34:06.107Z,14.70
2022-11-09T03:36:53.298Z,14.60
2022-11-09T03:39:40.879Z,14.70
2022-11-09T03:42:28.021Z,14.70
2022-11-09T03:45:16.678Z,14.50
2022-11-09T03:48:05.095Z,14.60
2022-11-09T03:50:52.225Z,14.50
2022-11-09T03:53:39.754Z,14.60
2022-11-09T03:56:27.267Z,14.60
2022-11-09T03:59:15.025Z,14.50
2022-11-09T04:02:02.255Z,14.40
2022-11-09T04:04:49.688Z,14.40
2022-11-09T04:07:37.900Z,14.30
2022-11-09T04:10:27.431Z,14.20
2022-11-09T04:13:14.926Z,14.20
2022-11-09T04:16:02.147Z,14.20
2022-11-09T04:18:49.217Z,14.10
2022-11-09T04:21:36.826Z,14.10
2022-11-09T04:24:24.036Z,14.10
2022-11-09T04:27:11.352Z,14.00
2022-11-09T04:29:58.675Z,14.00
2022-11-09T04:32:46.163Z,13.90
2022-11-09T04:35:34.707Z,13.90
2022-11-09T04:38:22.059Z,14.00
2022-11-09T04:41:09.602Z,14.10
2022-11-09T04:43:57.063Z,14.00
2022-11-09T04:46:44.265Z,14.00
2022-11-09T04:49:31.736Z,14.00
2022-11-09T04:52:19.375Z,14.00
2022-11-09T04:55:07.810Z,13.90
2022-11-09T04:57:54.751Z,14.00
2022-11-09T05:00:42.117Z,14.00
2022-11-09T05:03:29.651Z,14.10
2022-11-09T05:06:32.534Z,14.00
2022-11-09T05:09:19.905Z,14.10
2022-11-09T05:12:07.478Z,14.20
2022-11-09T05:14:55.005Z,14.10
2022-11-09T05:17:42.289Z,14.10
2022-11-09T05:20:31.165Z,14.00
2022-11-09T05:23:36.619Z,14.00
2022-11-09T05:26:24.136Z,14.10
2022-11-09T05:29:13.329Z,14.10
2022-11-09T05:32:00.568Z,14.20
2022-11-09T05:34:47.921Z,14.20
2022-11-09T05:37:35.073Z,14.30
2022-11-09T05:40:22.962Z,14.20
2022-11-09T05:43:11.205Z,14.30
2022-11-09T05:46:02.573Z,14.30
2022-11-09T05:48:48.276Z,14.30
2022-11-09T05:51:35.585Z,14.40
2022-11-09T05:54:23.124Z,14.30
2022-11-09T05:57:10.784Z,14.30
2022-11-09T05:59:58.651Z,14.20
2022-11-09T06:02:46.143Z,14.20
2022-11-09T06:05:35.391Z,14.20
2022-11-09T06:08:22.662Z,14.10
2022-11-09T06:11:13.851Z,14.10
2022-11-09T06:14:01.287Z,14.10
2022-11-09T06:16:48.762Z,14.20
2022-11-09T06:19:36.453Z,14.10
2022-11-09T06:22:23.931Z,14.00
2022-11-09T06:25:11.055Z,14.00
2022-11-09T06:27:58.479Z,14.00
2022-11-09T06:30:45.790Z,14.00
2022-11-09T06:33:34.799Z,14.00
2022-11-09T06:36:22.626Z,13.90
2022-11-09T06:39:10.151Z,13.90
2022-11-09T06:41:57.738Z,13.90
2022-11-09T06:44:45.176Z,13.90
2022-11-09T06:47:32.582Z,13.90
2022-11-09T06:50:19.871Z,13.90
2022-11-09T06:53:10.076Z,13.90
2022-11-09T06:56:05.438Z,13.90
2022-11-09T06:58:52.552Z,13.90
2022-11-09T07:01:39.692Z,14.00
2022-11-09T07:04:26.934Z,14.00
2022-11-09T07:07:14.061Z,14.00
2022-11-09T07:10:01.586Z,14.00
2022-11-09T07:12:49.495Z,14.00
2022-11-09T07:15:38.201Z,14.00
2022-11-09T07:18:25.234Z,14.00
2022-11-09T07:21:14.473Z,13.90
2022-11-09T07:24:02.044Z,13.90
2022-11-09T07:26:50.693Z,13.80
2022-11-09T07:29:38.024Z,13.70
2022-11-09T07:32:53.737Z,13.80
2022-11-09T07:35:14.162Z,13.90
2022-11-09T07:38:02.483Z,13.90
2022-11-09T07:40:49.882Z,13.80
2022-11-09T07:43:37.376Z,13.90
2022-11-09T07:46:24.850Z,13.90
2022-11-09T07:49:13.864Z,13.90
2022-11-09T07:52:01.321Z,13.90
2022-11-09T07:54:52.165Z,13.90
2022-11-09T07:57:37.928Z,13.90
2022-11-09T08:00:25.973Z,13.90
2022-11-09T08:03:13.667Z,13.90
2022-11-09T08:06:01.208Z,13.80
2022-11-09T08:08:49.472Z,13.80
2022-11-09T08:11:36.687Z,13.80
2022-11-09T08:14:24.160Z,13.80
2022-11-09T08:17:11.609Z,13.80
2022-11-09T08:19:59.024Z,13.90
2022-11-09T08:22:48.508Z,13.90
2022-11-09T08:25:36.790Z,14.00
2022-11-09T08:28:24.226Z,14.10
2022-11-09T08:31:11.403Z,14.00
2022-11-09T08:33:58.931Z,14.10
2022-11-09T08:36:45.895Z,14.00
2022-11-09T08:39:33.091Z,14.10
2022-11-09T08:42:20.315Z,14.10
2022-11-09T08:45:07.878Z,14.10
2022-11-09T08:47:59.860Z,14.20
2022-11-09T08:50:47.014Z,14.20
2022-11-09T08:53:34.323Z,14.10
2022-11-09T08:56:22.296Z,14.20
2022-11-09T08:59:09.709Z,14.20
2022-11-09T09:01:57.178Z,14.30
2022-11-09T09:04:45.266Z,14.40
2022-11-09T09:07:32.344Z,14.50
2022-11-09T09:10:19.397Z,14.40
2022-11-09T09:13:06.591Z,14.40
2022-11-09T09:15:54.173Z,14.40
2022-11-09T09:18:41.624Z,14.60
2022-11-09T09:21:29.093Z,14.50
2022-11-09T09:24:16.602Z,14.60
2022-11-09T09:27:04.513Z,14.60
2022-11-09T09:29:51.816Z,14.50
2022-11-09T09:32:39.242Z,14.50
2022-11-09T09:35:27.529Z,14.50
2022-11-09T09:38:15.108Z,14.50
2022-11-09T09:41:05.067Z,14.50
2022-11-09T09:43:55.295Z,14.60
2022-11-09T09:46:45.894Z,14.60
2022-11-09T09:49:36.549Z,14.50
2022-11-09T09:53:10.687Z,14.60
2022-11-09T09:55:44.562Z,14.50
2022-11-09T09:58:38.060Z,14.60
2022-11-09T10:01:27.184Z,14.70
2022-11-09T10:04:26.109Z,14.80
2022-11-09T10:07:25.050Z,14.70
2022-11-09T10:10:35.008Z,14.70
2022-11-09T10:13:43.531Z,14.80
2022-11-09T10:16:45.992Z,14.90
2022-11-09T10:20:09.885Z,14.90
2022-11-09T10:23:00.176Z,14.90
2022-11-09T10:26:03.978Z,14.80
2022-11-09T10:29:09.602Z,14.90
2022-11-09T10:31:34.786Z,14.90
2022-11-09T10:34:27.959Z,15.00
2022-11-09T10:37:27.033Z,14.90
2022-11-09T10:40:20.348Z,14.80
2022-11-09T10:43:13.823Z,14.90
2022-11-09T10:46:06.858Z,15.00
2022-11-09T10:48:55.806Z,15.00
2022-11-09T10:51:48.021Z,15.00
2022-11-09T10:54:38.002Z,15.10
2022-11-09T10:57:26.474Z,15.20
2022-11-09T11:00:19.124Z,15.20
2022-11-09T11:03:17.898Z,15.20
2022-11-09T11:06:20.374Z,15.30
2022-11-09T11:09:10.823Z,15.40
2022-11-09T11:12:13.349Z,15.40
2022-11-09T11:15:00.867Z,15.50
2022-11-09T11:17:48.562Z,15.40
2022-11-09T11:20:38.280Z,15.40
2022-11-09T11:23:27.030Z,15.50
2022-11-09T11:26:20.538Z,15.50
2022-11-09T11:29:34.767Z,15.50
2022-11-09T11:32:24.199Z,15.60
2022-11-09T11:35:17.673Z,15.50
2022-11-09T11:38:25.998Z,15.60
2022-11-09T11:41:16.394Z,15.60
2022-11-09T11:44:22.056Z,15.80
2022-11-09T11:47:30.853Z,15.90
2022-11-09T11:50:51.481Z,16.00
2022-11-09T11:53:54.289Z,15.90
2022-11-09T11:57:00.129Z,15.90
2022-11-09T11:59:59.638Z,15.90
2022-11-09T12:03:08.363Z,15.90
2022-11-09T12:06:01.370Z,16.00
2022-11-09T12:08:54.602Z,16.10
2022-11-09T12:11:52.011Z,16.20
2022-11-09T12:14:59.109Z,16.30
2022-11-09T12:17:52.290Z,16.50
2022-11-09T12:20:42.357Z,16.40
2022-11-09T12:23:50.973Z,16.30
2022-11-09T12:27:17.946Z,16.10
2022-11-09T12:29:48.303Z,16.10
2022-11-09T12:32:44.351Z,16.20
2022-11-09T12:35:53.181Z,16.10
2022-11-09T12:39:00.021Z,16.10
2022-11-09T12:41:49.165Z,16.20
2022-11-09T12:44:39.656Z,16.20
2022-11-09T12:47:36.387Z,16.20
2022-11-09T12:50:26.324Z,16.10
2022-11-09T12:53:14.100Z,16.00
2022-11-09T12:56:12.648Z,15.90
2022-11-09T12:59:31.782Z,15.90
2022-11-09T13:02:25.662Z,15.90
2022-11-09T13:05:38.697Z,16.10
2022-11-09T13:08:31.646Z,16.00
2022-11-09T13:11:25.050Z,15.80
2022-11-09T13:14:29.450Z,15.80
2022-11-09T13:17:25.664Z,15.80
2022-11-09T13:20:53.508Z,15.80
2022-11-09T13:24:01.323Z,15.90
2022-11-09T13:26:37.457Z,15.90
2022-11-09T13:29:30.402Z,16.00
2022-11-09T13:32:23.917Z,15.90
2022-11-09T13:35:14.203Z,15.90
2022-11-09T13:38:05.857Z,15.90
2022-11-09T13:40:52.635Z,15.90
2022-11-09T13:43:41.543Z,15.90
2022-11-09T13:46:35.104Z,15.90
2022-11-09T13:49:34.725Z,15.90
2022-11-09T13:52:50.916Z,15.90
2022-11-09T13:55:40.655Z,15.90
2022-11-09T13:58:36.797Z,15.80
2022-11-09T14:01:37.933Z,15.80
2022-11-09T14:04:33.754Z,15.80
2022-11-09T14:07:31.507Z,15.80
2022-11-09T14:10:44.886Z,15.80
2022-11-09T14:13:54.113Z,15.80
2022-11-09T14:17:05.307Z,15.70
2022-11-09T14:20:09.218Z,15.80
2022-11-09T14:22:53.309Z,15.80
2022-11-09T14:25:40.366Z,15.80
2022-11-09T14:28:33.925Z,15.80
2022-11-09T14:31:29.164Z,15.80
2022-11-09T14:34:18.144Z,15.80
2022-11-09T14:37:07.390Z,15.80
2022-11-09T14:39:54.671Z,15.80
2022-11-09T14:42:46.164Z,15.80
2022-11-09T14:45:32.532Z,15.80
2022-11-09T14:48:21.637Z,15.70
2022-11-09T14:51:13.496Z,15.70
2022-11-09T14:54:02.023Z,15.60
2022-11-09T14:56:49.717Z,15.50
2022-11-09T14:59:37.073Z,15.30
2022-11-09T15:02:25.352Z,15.20
2022-11-09T15:05:30.306Z,15.10
2022-11-09T15:08:23.069Z,15.00
2022-11-09T15:11:11.689Z,15.00
2022-11-09T15:13:58.652Z,15.10
2022-11-09T15:16:48.013Z,15.00
2022-11-09T15:19:41.333Z,14.90
2022-11-09T15:22:51.482Z,14.90
2022-11-09T15:25:41.720Z,14.90
2022-11-09T15:28:30.925Z,14.90
2022-11-09T15:31:19.463Z,14.80
2022-11-09T15:34:24.580Z,14.80
2022-11-09T15:37:26.997Z,14.80
2022-11-09T15:40:17.826Z,14.70
2022-11-09T15:43:05.406Z,14.70
2022-11-09T15:45:53.067Z,14.70
2022-11-09T15:48:45.583Z,14.60
2022-11-09T15:51:29.913Z,14.50
2022-11-09T15:54:17.775Z,14.50
2022-11-09T15:57:05.189Z,14.50
2022-11-09T15:59:52.901Z,14.50
2022-11-09T16:02:40.374Z,14.40
2022-11-09T16:05:28.112Z,14.40
2022-11-09T16:08:15.277Z,14.40
2022-11-09T16:11:05.171Z,14.30
2022-11-09T16:13:52.417Z,14.40
2022-11-09T16:16:39.602Z,14.40
2022-11-09T16:19:27.120Z,14.50
2022-11-09T16:22:14.418Z,14.50
2022-11-09T16:25:02.192Z,14.50
2022-11-09T16:27:50.849Z,14.50
2022-11-09T16:30:41.545Z,14.60
2022-11-09T16:33:27.090Z,14.60
2022-11-09T16:36:17.982Z,14.70
2022-11-09T16:39:09.438Z,14.80
2022-11-09T16:41:56.559Z,14.80
2022-11-09T16:44:46.263Z,14.90
2022-11-09T16:47:36.509Z,14.80
2022-11-09T16:50:25.218Z,14.70
2022-11-09T16:53:12.585Z,14.70
2022-11-09T16:56:00.089Z,14.60
2022-11-09T16:58:48.324Z,14.50
2022-11-09T17:01:35.923Z,14.50
2022-11-09T17:04:24.023Z,14.40
2022-11-09T17:07:12.251Z,14.40
2022-11-09T17:09:59.690Z,14.30
2022-11-09T17:12:47.130Z,14.30
2022-11-09T17:15:34.458Z,14.20
2022-11-09T17:18:22.111Z,14.20
2022-11-09T17:21:14.407Z,14.20
2022-11-09T17:24:02.254Z,14.10
2022-11-09T17:26:49.330Z,14.10
2022-11-09T17:29:38.547Z,14.10
2022-11-09T17:32:27.186Z,14.10
2022-11-09T17:35:14.369Z,14.20
2022-11-09T17:38:01.722Z,14.20
2022-11-09T17:40:49.205Z,14.20
2022-11-09T17:43:38.642Z,14.20
2022-11-09T17:46:26.196Z,14.10
2022-11-09T17:49:13.401Z,14.00
2022-11-09T17:52:00.818Z,14.00
2022-11-09T17:54:48.257Z,14.00
2022-11-09T17:57:35.717Z,14.00
2022-11-09T18:00:23.388Z,14.00
2022-11-09T18:03:11.167Z,14.10
2022-11-09T18:05:58.616Z,14.10
2022-11-09T18:08:58.308Z,14.10
2022-11-09T18:11:35.930Z,14.10
2022-11-09T18:14:23.108Z,14.10
2022-11-09T18:17:10.369Z,14.00
2022-11-09T18:19:57.740Z,14.00
2022-11-09T18:22:45.442Z,14.00
2022-11-09T18:25:32.477Z,14.00
2022-11-09T18:28:20.257Z,13.90
2022-11-09T18:31:10.692Z,13.90
2022-11-09T18:33:57.952Z,13.90
2022-11-09T18:36:45.044Z,13.80
2022-11-09T18:39:32.357Z,13.70
2022-11-09T18:42:19.679Z,13.70
2022-11-09T18:45:09.473Z,13.70
2022-11-09T18:47:57.519Z,13.70
2022-11-09T18:50:45.010Z,13.70
2022-11-09T18:53:37.883Z,13.60
2022-11-09T18:56:25.849Z,13.60
2022-11-09T18:59:13.274Z,13.60
2022-11-09T19:02:00.853Z,13.60
2022-11-09T19:04:48.185Z,13.60
2022-11-09T19:07:35.323Z,13.60
2022-11-09T19:10:22.819Z,13.60
2022-11-09T19:13:10.220Z,13.60
2022-11-09T19:15:58.501Z,13.60
2022-11-09T19:18:45.825Z,13.60
2022-11-09T19:21:39.845Z,13.60
2022-11-09T19:24:29.691Z,13.60
2022-11-09T19:27:17.217Z,13.70
2022-11-09T19:30:09.238Z,13.70
2022-11-09T19:32:53.780Z,13.80
2022-11-09T19:35:41.187Z,13.90
2022-11-09T19:38:28.600Z,14.00
2022-11-09T19:41:16.179Z,14.00
2022-11-09T19:44:06.240Z,14.00
2022-11-09T19:46:53.882Z,14.00
2022-11-09T19:49:41.070Z,14.00
2022-11-09T19:52:28.561Z,14.00
2022-11-09T19:55:16.153Z,14.00
2022-11-09T19:58:03.431Z,14.00
2022-11-09T20:00:51.027Z,13.90
2022-11-09T20:03:38.958Z,13.90
2022-11-09T20:06:26.809Z,13.80
2022-11-09T20:09:13.954Z,13.70
2022-11-09T20:12:19.337Z,13.60
2022-11-09T20:15:06.914Z,13.50
2022-11-09T20:17:54.333Z,13.40
2022-11-09T20:20:41.642Z,13.20
2022-11-09T20:23:30.103Z,13.10
2022-11-09T20:26:17.278Z,13.00
2022-11-09T20:29:04.465Z,13.00
2022-11-09T20:31:51.971Z,13.00
2022-11-09T20:34:39.400Z,13.00
2022-11-09T20:37:26.780Z,13.00
2022-11-09T20:40:14.036Z,13.00
2022-11-09T20:43:01.195Z,13.10
2022-11-09T20:45:48.262Z,13.10
2022-11-09T20:48:53.442Z,13.10
2022-11-09T20:51:25.405Z,13.10
2022-11-09T20:54:12.996Z,13.10
2022-11-09T20:57:00.557Z,12.90
2022-11-09T20:59:48.153Z,12.90
2022-11-09T21:02:35.820Z,12.90
2022-11-09T21:05:26.769Z,12.90
2022-11-09T21:08:14.215Z,12.90
2022-11-09T21:11:03.300Z,12.90
2022-11-09T21:13:56.154Z,12.80
2022-11-09T21:16:43.680Z,12.80
2022-11-09T21:19:32.873Z,12.80
2022-11-09T21:22:20.404Z,12.70
2022-11-09T21:25:27.033Z,12.70
2022-11-09T21:28:34.784Z,12.70
2022-11-09T21:31:24.947Z,12.50
2022-11-09T21:34:12.390Z,12.50
2022-11-09T21:36:59.639Z,12.30
2022-11-09T21:39:47.086Z,12.20
2022-11-09T21:42:34.297Z,12.10
2022-11-09T21:45:22.083Z,12.10
2022-11-09T21:48:12.845Z,11.90
2022-11-09T21:51:00.275Z,11.80
2022-11-09T21:56:51.423Z,11.60
2022-11-09T21:59:38.750Z,11.50
2022-11-09T22:02:26.231Z,11.40
2022-11-09T22:05:13.557Z,11.40
2022-11-09T22:08:01.073Z,11.20
2022-11-09T22:10:48.374Z,11.00
2022-11-09T22:13:54.200Z,10.90
2022-11-09T22:16:41.705Z,10.70
2022-11-09T22:19:47.183Z,10.70
2022-11-09T22:22:36.154Z,10.60
2022-11-09T22:25:23.394Z,10.60
2022-11-09T22:28:10.578Z,10.60
2022-11-09T22:30:59.356Z,10.60
2022-11-09T22:33:46.756Z,10.50
2022-11-09T22:36:33.977Z,10.50
2022-11-09T22:39:21.605Z,10.40
2022-11-09T22:42:08.935Z,10.20
2022-11-09T22:44:56.321Z,10.20
2022-11-09T22:47:43.828Z,10.10
2022-11-09T22:50:31.418Z,10.10
2022-11-09T22:53:19.447Z,10.00
2022-11-09T22:56:08.077Z,10.00
2022-11-09T22:58:55.321Z,9.90
2022-11-09T23:01:42.840Z,9.80
2022-11-09T23:04:30.065Z,9.80
2022-11-09T23:07:17.448Z,9.70
2022-11-09T23:10:04.948Z,9.60
2022-11-09T23:12:55.056Z,9.50
2022-11-09T23:15:42.598Z,9.50
2022-11-09T23:18:48.321Z,9.50
2022-11-09T23:21:37.997Z,9.40
2022-11-09T23:24:43.795Z,9.40
2022-11-09T23:27:31.302Z,9.40
2022-11-09T23:30:18.898Z,9.30
2022-11-09T23:33:06.347Z,9.30
2022-11-09T23:35:53.751Z,9.20
2022-11-09T23:38:41.249Z,9.20
2022-11-09T23:41:28.579Z,9.20
2022-11-09T23:44:15.945Z,9.10
2022-11-09T23:47:03.429Z,9.00
2022-11-09T23:49:52.869Z,9.00
2022-11-09T23:52:39.880Z,9.00
2022-11-09T23:55:28.193Z,9.00
2022-11-09T23:58:15.647Z,8.80
